sensor_id;sensor_type;location;lat;lon;timestamp;P1;durP1;ratioP1;P2;durP2;ratioP2
78344;SDS011;67620;51.134;6.548;2023-04-29T00:00:01;22.40;;;13.32;;
78344;SDS011;67620;51.134;6.548;2023-04-29T00:02:28;22.52;;;13.68;;
78344;SDS011;67620;51.134;6.548;2023-04-29T00:04:55;23.38;;;14.85;;
78344;SDS011;67620;51.134;6.548;2023-04-29T00:07:20;24.35;;;14.25;;
78344;SDS011;67620;51.134;6.548;2023-04-29T00:09:46;22.83;;;13.85;;
78344;SDS011;67620;51.134;6.548;2023-04-29T00:12:11;24.52;;;14.32;;
78344;SDS011;67620;51.134;6.548;2023-04-29T00:14:37;24.45;;;15.10;;
78344;SDS011;67620;51.134;6.548;2023-04-29T00:17:02;27.13;;;16.38;;
78344;SDS011;67620;51.134;6.548;2023-04-29T00:19:28;26.35;;;16.67;;
78344;SDS011;67620;51.134;6.548;2023-04-29T00:21:53;27.73;;;19.42;;
78344;SDS011;67620;51.134;6.548;2023-04-29T00:24:19;33.65;;;22.65;;
78344;SDS011;67620;51.134;6.548;2023-04-29T00:26:45;39.13;;;24.20;;
78344;SDS011;67620;51.134;6.548;2023-04-29T00:29:10;38.83;;;24.42;;
78344;SDS011;67620;51.134;6.548;2023-04-29T00:31:36;35.30;;;25.50;;
78344;SDS011;67620;51.134;6.548;2023-04-29T00:34:01;37.08;;;24.70;;
78344;SDS011;67620;51.134;6.548;2023-04-29T00:36:27;37.10;;;25.42;;
78344;SDS011;67620;51.134;6.548;2023-04-29T00:38:53;42.22;;;25.55;;
78344;SDS011;67620;51.134;6.548;2023-04-29T00:41:19;38.85;;;24.75;;
78344;SDS011;67620;51.134;6.548;2023-04-29T00:46:10;41.10;;;24.77;;
78344;SDS011;67620;51.134;6.548;2023-04-29T00:48:36;41.72;;;25.95;;
78344;SDS011;67620;51.134;6.548;2023-04-29T00:51:01;39.75;;;24.90;;
78344;SDS011;67620;51.134;6.548;2023-04-29T00:53:29;39.53;;;26.00;;
78344;SDS011;67620;51.134;6.548;2023-04-29T00:55:55;41.45;;;26.70;;
78344;SDS011;67620;51.134;6.548;2023-04-29T00:58:21;52.42;;;29.77;;
78344;SDS011;67620;51.134;6.548;2023-04-29T01:00:48;52.17;;;30.10;;
78344;SDS011;67620;51.134;6.548;2023-04-29T01:03:13;50.10;;;28.85;;
78344;SDS011;67620;51.134;6.548;2023-04-29T01:05:39;57.38;;;29.88;;
78344;SDS011;67620;51.134;6.548;2023-04-29T01:08:13;55.90;;;32.03;;
78344;SDS011;67620;51.134;6.548;2023-04-29T01:13:41;55.70;;;30.48;;
78344;SDS011;67620;51.134;6.548;2023-04-29T01:16:20;58.72;;;31.15;;
78344;SDS011;67620;51.134;6.548;2023-04-29T01:18:53;57.90;;;31.67;;
78344;SDS011;67620;51.134;6.548;2023-04-29T01:21:23;61.33;;;31.83;;
78344;SDS011;67620;51.134;6.548;2023-04-29T01:23:49;61.92;;;31.58;;
78344;SDS011;67620;51.134;6.548;2023-04-29T01:26:23;59.58;;;32.63;;
78344;SDS011;67620;51.134;6.548;2023-04-29T01:28:53;64.90;;;33.05;;
78344;SDS011;67620;51.134;6.548;2023-04-29T01:31:35;65.00;;;31.58;;
78344;SDS011;67620;51.134;6.548;2023-04-29T01:34:09;65.22;;;33.58;;
78344;SDS011;67620;51.134;6.548;2023-04-29T01:36:44;69.68;;;35.17;;
78344;SDS011;67620;51.134;6.548;2023-04-29T01:44:45;67.18;;;34.63;;
78344;SDS011;67620;51.134;6.548;2023-04-29T01:47:13;67.15;;;34.05;;
78344;SDS011;67620;51.134;6.548;2023-04-29T01:49:39;66.95;;;36.15;;
78344;SDS011;67620;51.134;6.548;2023-04-29T01:52:05;70.38;;;35.63;;
78344;SDS011;67620;51.134;6.548;2023-04-29T01:54:31;66.45;;;35.30;;
78344;SDS011;67620;51.134;6.548;2023-04-29T01:57:00;70.70;;;35.92;;
78344;SDS011;67620;51.134;6.548;2023-04-29T02:01:51;64.00;;;34.88;;
78344;SDS011;67620;51.134;6.548;2023-04-29T02:04:17;69.55;;;35.03;;
78344;SDS011;67620;51.134;6.548;2023-04-29T02:06:43;72.65;;;37.35;;
78344;SDS011;67620;51.134;6.548;2023-04-29T02:09:08;70.18;;;38.70;;
78344;SDS011;67620;51.134;6.548;2023-04-29T02:11:34;71.47;;;39.45;;
78344;SDS011;67620;51.134;6.548;2023-04-29T02:13:59;71.60;;;36.65;;
78344;SDS011;67620;51.134;6.548;2023-04-29T02:16:25;77.65;;;40.88;;
78344;SDS011;67620;51.134;6.548;2023-04-29T02:18:50;80.18;;;39.70;;
78344;SDS011;67620;51.134;6.548;2023-04-29T02:21:16;76.75;;;37.50;;
78344;SDS011;67620;51.134;6.548;2023-04-29T02:23:42;71.97;;;34.78;;
78344;SDS011;67620;51.134;6.548;2023-04-29T02:26:07;79.95;;;36.55;;
78344;SDS011;67620;51.134;6.548;2023-04-29T02:28:34;82.32;;;36.42;;
78344;SDS011;67620;51.134;6.548;2023-04-29T02:31:00;78.25;;;35.55;;
78344;SDS011;67620;51.134;6.548;2023-04-29T02:33:25;76.45;;;35.85;;
78344;SDS011;67620;51.134;6.548;2023-04-29T02:35:51;72.95;;;35.88;;
78344;SDS011;67620;51.134;6.548;2023-04-29T02:38:16;70.40;;;35.08;;
78344;SDS011;67620;51.134;6.548;2023-04-29T02:40:45;70.63;;;33.58;;
78344;SDS011;67620;51.134;6.548;2023-04-29T02:43:11;73.20;;;31.77;;
78344;SDS011;67620;51.134;6.548;2023-04-29T02:45:37;69.75;;;32.55;;
78344;SDS011;67620;51.134;6.548;2023-04-29T02:50:29;59.40;;;26.75;;
78344;SDS011;67620;51.134;6.548;2023-04-29T02:52:55;55.83;;;28.15;;
78344;SDS011;67620;51.134;6.548;2023-04-29T02:55:21;65.68;;;30.85;;
78344;SDS011;67620;51.134;6.548;2023-04-29T02:57:47;64.88;;;30.33;;
78344;SDS011;67620;51.134;6.548;2023-04-29T03:00:12;61.72;;;29.38;;
78344;SDS011;67620;51.134;6.548;2023-04-29T03:02:38;58.22;;;28.42;;
78344;SDS011;67620;51.134;6.548;2023-04-29T03:05:03;54.47;;;27.65;;
78344;SDS011;67620;51.134;6.548;2023-04-29T03:07:30;61.65;;;26.77;;
78344;SDS011;67620;51.134;6.548;2023-04-29T03:09:56;62.78;;;28.38;;
78344;SDS011;67620;51.134;6.548;2023-04-29T03:12:21;51.53;;;23.83;;
78344;SDS011;67620;51.134;6.548;2023-04-29T03:14:47;52.65;;;25.58;;
78344;SDS011;67620;51.134;6.548;2023-04-29T03:17:13;45.38;;;24.77;;
78344;SDS011;67620;51.134;6.548;2023-04-29T03:22:04;44.83;;;24.25;;
78344;SDS011;67620;51.134;6.548;2023-04-29T03:24:31;52.28;;;26.45;;
78344;SDS011;67620;51.134;6.548;2023-04-29T03:26:57;53.65;;;26.85;;
78344;SDS011;67620;51.134;6.548;2023-04-29T03:29:24;48.65;;;26.58;;
78344;SDS011;67620;51.134;6.548;2023-04-29T03:31:50;46.50;;;24.50;;
78344;SDS011;67620;51.134;6.548;2023-04-29T03:34:16;50.38;;;26.35;;
78344;SDS011;67620;51.134;6.548;2023-04-29T03:36:41;41.97;;;23.00;;
78344;SDS011;67620;51.134;6.548;2023-04-29T03:39:07;44.83;;;21.88;;
78344;SDS011;67620;51.134;6.548;2023-04-29T03:41:32;46.15;;;23.85;;
78344;SDS011;67620;51.134;6.548;2023-04-29T03:43:58;41.00;;;22.42;;
78344;SDS011;67620;51.134;6.548;2023-04-29T03:46:25;43.55;;;23.20;;
78344;SDS011;67620;51.134;6.548;2023-04-29T03:48:51;46.75;;;23.77;;
78344;SDS011;67620;51.134;6.548;2023-04-29T03:51:19;45.20;;;24.45;;
78344;SDS011;67620;51.134;6.548;2023-04-29T03:53:46;48.28;;;25.80;;
78344;SDS011;67620;51.134;6.548;2023-04-29T03:56:11;51.38;;;26.15;;
78344;SDS011;67620;51.134;6.548;2023-04-29T03:58:37;48.25;;;26.35;;
78344;SDS011;67620;51.134;6.548;2023-04-29T04:01:02;50.00;;;25.80;;
78344;SDS011;67620;51.134;6.548;2023-04-29T04:03:28;48.67;;;24.45;;
78344;SDS011;67620;51.134;6.548;2023-04-29T04:05:53;46.53;;;25.67;;
78344;SDS011;67620;51.134;6.548;2023-04-29T04:08:19;49.88;;;25.73;;
78344;SDS011;67620;51.134;6.548;2023-04-29T04:10:45;47.78;;;24.48;;
78344;SDS011;67620;51.134;6.548;2023-04-29T04:13:10;44.38;;;24.77;;
78344;SDS011;67620;51.134;6.548;2023-04-29T04:15:36;45.53;;;24.42;;
78344;SDS011;67620;51.134;6.548;2023-04-29T04:18:01;43.95;;;23.50;;
78344;SDS011;67620;51.134;6.548;2023-04-29T04:20:27;41.67;;;21.75;;
78344;SDS011;67620;51.134;6.548;2023-04-29T04:22:52;43.13;;;22.45;;
78344;SDS011;67620;51.134;6.548;2023-04-29T04:27:44;38.05;;;21.42;;
78344;SDS011;67620;51.134;6.548;2023-04-29T04:30:10;41.03;;;21.40;;
78344;SDS011;67620;51.134;6.548;2023-04-29T04:32:36;41.17;;;21.25;;
78344;SDS011;67620;51.134;6.548;2023-04-29T04:35:03;39.05;;;21.73;;
78344;SDS011;67620;51.134;6.548;2023-04-29T04:37:29;40.05;;;22.42;;
78344;SDS011;67620;51.134;6.548;2023-04-29T04:39:54;37.45;;;20.63;;
78344;SDS011;67620;51.134;6.548;2023-04-29T04:42:21;36.60;;;20.98;;
78344;SDS011;67620;51.134;6.548;2023-04-29T04:44:47;37.45;;;20.45;;
78344;SDS011;67620;51.134;6.548;2023-04-29T04:47:13;37.20;;;20.67;;
78344;SDS011;67620;51.134;6.548;2023-04-29T04:49:38;34.22;;;20.35;;
78344;SDS011;67620;51.134;6.548;2023-04-29T04:52:04;37.15;;;20.17;;
78344;SDS011;67620;51.134;6.548;2023-04-29T04:54:29;34.40;;;20.33;;
78344;SDS011;67620;51.134;6.548;2023-04-29T04:56:55;35.50;;;19.88;;
78344;SDS011;67620;51.134;6.548;2023-04-29T04:59:21;31.92;;;18.58;;
78344;SDS011;67620;51.134;6.548;2023-04-29T05:01:46;33.92;;;19.88;;
78344;SDS011;67620;51.134;6.548;2023-04-29T05:04:12;31.70;;;18.98;;
78344;SDS011;67620;51.134;6.548;2023-04-29T05:06:37;30.67;;;18.23;;
78344;SDS011;67620;51.134;6.548;2023-04-29T05:09:03;33.58;;;19.58;;
78344;SDS011;67620;51.134;6.548;2023-04-29T05:11:28;34.92;;;19.85;;
78344;SDS011;67620;51.134;6.548;2023-04-29T05:13:54;33.00;;;18.58;;
78344;SDS011;67620;51.134;6.548;2023-04-29T05:16:19;30.83;;;18.80;;
78344;SDS011;67620;51.134;6.548;2023-04-29T05:18:45;29.98;;;18.02;;
78344;SDS011;67620;51.134;6.548;2023-04-29T05:21:11;31.75;;;18.60;;
78344;SDS011;67620;51.134;6.548;2023-04-29T05:23:37;31.70;;;18.50;;
78344;SDS011;67620;51.134;6.548;2023-04-29T05:26:02;31.45;;;18.08;;
78344;SDS011;67620;51.134;6.548;2023-04-29T05:28:28;32.08;;;18.27;;
78344;SDS011;67620;51.134;6.548;2023-04-29T05:30:53;33.03;;;17.63;;
78344;SDS011;67620;51.134;6.548;2023-04-29T05:33:19;31.30;;;18.88;;
78344;SDS011;67620;51.134;6.548;2023-04-29T05:35:45;34.25;;;19.42;;
78344;SDS011;67620;51.134;6.548;2023-04-29T05:38:10;30.27;;;17.83;;
78344;SDS011;67620;51.134;6.548;2023-04-29T05:40:36;33.03;;;17.70;;
78344;SDS011;67620;51.134;6.548;2023-04-29T05:43:02;29.90;;;17.73;;
78344;SDS011;67620;51.134;6.548;2023-04-29T05:45:27;30.80;;;18.08;;
78344;SDS011;67620;51.134;6.548;2023-04-29T05:47:53;33.05;;;17.92;;
78344;SDS011;67620;51.134;6.548;2023-04-29T05:50:18;30.75;;;18.45;;
78344;SDS011;67620;51.134;6.548;2023-04-29T05:52:44;29.88;;;18.15;;
78344;SDS011;67620;51.134;6.548;2023-04-29T05:55:09;33.75;;;19.00;;
78344;SDS011;67620;51.134;6.548;2023-04-29T05:57:35;30.83;;;18.10;;
78344;SDS011;67620;51.134;6.548;2023-04-29T06:00:00;29.42;;;17.75;;
78344;SDS011;67620;51.134;6.548;2023-04-29T06:02:28;30.33;;;18.92;;
78344;SDS011;67620;51.134;6.548;2023-04-29T06:04:53;31.05;;;18.25;;
78344;SDS011;67620;51.134;6.548;2023-04-29T06:07:19;31.15;;;17.27;;
78344;SDS011;67620;51.134;6.548;2023-04-29T06:09:45;30.55;;;18.17;;
78344;SDS011;67620;51.134;6.548;2023-04-29T06:12:11;31.95;;;16.92;;
78344;SDS011;67620;51.134;6.548;2023-04-29T06:14:37;30.20;;;17.65;;
78344;SDS011;67620;51.134;6.548;2023-04-29T06:17:02;28.35;;;17.25;;
78344;SDS011;67620;51.134;6.548;2023-04-29T06:19:28;27.33;;;16.58;;
78344;SDS011;67620;51.134;6.548;2023-04-29T06:21:53;33.03;;;20.30;;
78344;SDS011;67620;51.134;6.548;2023-04-29T06:24:19;31.73;;;19.10;;
78344;SDS011;67620;51.134;6.548;2023-04-29T06:26:45;32.67;;;18.98;;
78344;SDS011;67620;51.134;6.548;2023-04-29T06:29:10;28.85;;;17.17;;
78344;SDS011;67620;51.134;6.548;2023-04-29T06:31:36;27.33;;;15.73;;
78344;SDS011;67620;51.134;6.548;2023-04-29T06:34:02;30.95;;;19.30;;
78344;SDS011;67620;51.134;6.548;2023-04-29T06:36:27;34.33;;;19.50;;
78344;SDS011;67620;51.134;6.548;2023-04-29T06:38:53;31.42;;;18.05;;
78344;SDS011;67620;51.134;6.548;2023-04-29T06:41:19;27.20;;;16.77;;
78344;SDS011;67620;51.134;6.548;2023-04-29T06:43:45;23.63;;;15.15;;
78344;SDS011;67620;51.134;6.548;2023-04-29T06:46:10;27.25;;;15.80;;
78344;SDS011;67620;51.134;6.548;2023-04-29T06:51:02;22.13;;;12.95;;
78344;SDS011;67620;51.134;6.548;2023-04-29T06:53:28;22.77;;;14.05;;
78344;SDS011;67620;51.134;6.548;2023-04-29T06:55:54;21.60;;;13.23;;
78344;SDS011;67620;51.134;6.548;2023-04-29T06:58:19;22.63;;;13.13;;
78344;SDS011;67620;51.134;6.548;2023-04-29T07:00:46;23.08;;;14.18;;
78344;SDS011;67620;51.134;6.548;2023-04-29T07:03:12;21.17;;;12.85;;
78344;SDS011;67620;51.134;6.548;2023-04-29T07:05:39;21.08;;;13.32;;
78344;SDS011;67620;51.134;6.548;2023-04-29T07:08:06;21.88;;;13.50;;
78344;SDS011;67620;51.134;6.548;2023-04-29T07:12:57;24.73;;;13.32;;
78344;SDS011;67620;51.134;6.548;2023-04-29T07:15:24;21.02;;;12.68;;
78344;SDS011;67620;51.134;6.548;2023-04-29T07:17:53;20.38;;;13.30;;
78344;SDS011;67620;51.134;6.548;2023-04-29T07:20:19;22.65;;;13.65;;
78344;SDS011;67620;51.134;6.548;2023-04-29T07:22:45;20.48;;;13.00;;
78344;SDS011;67620;51.134;6.548;2023-04-29T07:25:10;20.15;;;12.35;;
78344;SDS011;67620;51.134;6.548;2023-04-29T07:27:36;21.17;;;13.18;;
78344;SDS011;67620;51.134;6.548;2023-04-29T07:30:02;18.60;;;12.07;;
78344;SDS011;67620;51.134;6.548;2023-04-29T07:32:29;22.83;;;13.23;;
78344;SDS011;67620;51.134;6.548;2023-04-29T07:34:57;20.77;;;13.35;;
78344;SDS011;67620;51.134;6.548;2023-04-29T07:37:23;17.95;;;12.10;;
78344;SDS011;67620;51.134;6.548;2023-04-29T07:39:49;22.02;;;12.40;;
78344;SDS011;67620;51.134;6.548;2023-04-29T07:42:15;18.48;;;11.93;;
78344;SDS011;67620;51.134;6.548;2023-04-29T07:44:40;18.55;;;11.95;;
78344;SDS011;67620;51.134;6.548;2023-04-29T07:47:06;17.58;;;11.63;;
78344;SDS011;67620;51.134;6.548;2023-04-29T07:49:31;18.13;;;11.20;;
78344;SDS011;67620;51.134;6.548;2023-04-29T07:51:57;16.23;;;10.80;;
78344;SDS011;67620;51.134;6.548;2023-04-29T07:54:22;119.45;;;98.20;;
78344;SDS011;67620;51.134;6.548;2023-04-29T07:56:48;21.88;;;15.60;;
78344;SDS011;67620;51.134;6.548;2023-04-29T07:59:14;18.00;;;11.18;;
78344;SDS011;67620;51.134;6.548;2023-04-29T08:01:40;19.63;;;12.23;;
78344;SDS011;67620;51.134;6.548;2023-04-29T08:04:06;22.23;;;12.32;;
78344;SDS011;67620;51.134;6.548;2023-04-29T08:06:32;20.90;;;12.57;;
78344;SDS011;67620;51.134;6.548;2023-04-29T08:08:58;18.58;;;12.20;;
78344;SDS011;67620;51.134;6.548;2023-04-29T08:11:24;18.17;;;11.55;;
78344;SDS011;67620;51.134;6.548;2023-04-29T08:13:51;16.27;;;11.18;;
78344;SDS011;67620;51.134;6.548;2023-04-29T08:16:17;18.52;;;11.93;;
78344;SDS011;67620;51.134;6.548;2023-04-29T08:18:42;17.98;;;11.88;;
78344;SDS011;67620;51.134;6.548;2023-04-29T08:21:08;19.70;;;12.13;;
78344;SDS011;67620;51.134;6.548;2023-04-29T08:23:36;17.30;;;11.43;;
78344;SDS011;67620;51.134;6.548;2023-04-29T08:26:02;17.83;;;11.38;;
78344;SDS011;67620;51.134;6.548;2023-04-29T08:28:28;18.00;;;11.98;;
78344;SDS011;67620;51.134;6.548;2023-04-29T08:30:53;20.17;;;11.82;;
78344;SDS011;67620;51.134;6.548;2023-04-29T08:33:19;15.63;;;10.73;;
78344;SDS011;67620;51.134;6.548;2023-04-29T08:35:46;16.95;;;11.82;;
78344;SDS011;67620;51.134;6.548;2023-04-29T08:38:11;18.10;;;11.82;;
78344;SDS011;67620;51.134;6.548;2023-04-29T08:40:41;16.77;;;11.77;;
78344;SDS011;67620;51.134;6.548;2023-04-29T08:43:09;19.30;;;11.57;;
78344;SDS011;67620;51.134;6.548;2023-04-29T08:45:36;21.80;;;12.35;;
78344;SDS011;67620;51.134;6.548;2023-04-29T08:48:02;18.65;;;12.18;;
78344;SDS011;67620;51.134;6.548;2023-04-29T08:52:54;16.15;;;11.18;;
78344;SDS011;67620;51.134;6.548;2023-04-29T08:55:20;22.40;;;14.05;;
78344;SDS011;67620;51.134;6.548;2023-04-29T08:57:45;25.17;;;16.33;;
78344;SDS011;67620;51.134;6.548;2023-04-29T09:00:14;20.98;;;13.40;;
78344;SDS011;67620;51.134;6.548;2023-04-29T09:02:42;20.23;;;11.10;;
78344;SDS011;67620;51.134;6.548;2023-04-29T09:05:11;18.50;;;11.30;;
78344;SDS011;67620;51.134;6.548;2023-04-29T09:07:37;19.75;;;12.90;;
78344;SDS011;67620;51.134;6.548;2023-04-29T09:10:04;16.33;;;11.82;;
78344;SDS011;67620;51.134;6.548;2023-04-29T09:12:30;17.35;;;11.63;;
78344;SDS011;67620;51.134;6.548;2023-04-29T09:14:56;21.02;;;12.98;;
78344;SDS011;67620;51.134;6.548;2023-04-29T09:17:38;18.05;;;11.05;;
78344;SDS011;67620;51.134;6.548;2023-04-29T09:22:47;17.27;;;11.85;;
78344;SDS011;67620;51.134;6.548;2023-04-29T09:25:15;19.35;;;11.68;;
78344;SDS011;67620;51.134;6.548;2023-04-29T09:27:42;19.48;;;12.93;;
78344;SDS011;67620;51.134;6.548;2023-04-29T09:30:09;19.67;;;12.95;;
78344;SDS011;67620;51.134;6.548;2023-04-29T09:32:38;21.25;;;13.23;;
78344;SDS011;67620;51.134;6.548;2023-04-29T09:37:51;21.20;;;12.80;;
78344;SDS011;67620;51.134;6.548;2023-04-29T09:40:31;22.65;;;13.48;;
78344;SDS011;67620;51.134;6.548;2023-04-29T09:42:58;20.25;;;12.93;;
78344;SDS011;67620;51.134;6.548;2023-04-29T09:45:57;27.02;;;15.65;;
78344;SDS011;67620;51.134;6.548;2023-04-29T09:48:16;24.73;;;15.02;;
78344;SDS011;67620;51.134;6.548;2023-04-29T09:53:09;23.73;;;13.85;;
78344;SDS011;67620;51.134;6.548;2023-04-29T09:55:36;25.70;;;15.18;;
78344;SDS011;67620;51.134;6.548;2023-04-29T09:58:29;23.83;;;15.35;;
78344;SDS011;67620;51.134;6.548;2023-04-29T10:01:01;27.05;;;15.85;;
78344;SDS011;67620;51.134;6.548;2023-04-29T10:03:34;22.88;;;16.17;;
78344;SDS011;67620;51.134;6.548;2023-04-29T10:06:02;25.17;;;16.08;;
78344;SDS011;67620;51.134;6.548;2023-04-29T10:08:29;26.15;;;16.42;;
78344;SDS011;67620;51.134;6.548;2023-04-29T10:11:00;30.40;;;17.55;;
78344;SDS011;67620;51.134;6.548;2023-04-29T10:13:27;31.17;;;17.95;;
78344;SDS011;67620;51.134;6.548;2023-04-29T10:16:02;29.60;;;18.92;;
78344;SDS011;67620;51.134;6.548;2023-04-29T10:18:48;28.98;;;17.50;;
78344;SDS011;67620;51.134;6.548;2023-04-29T10:21:18;28.65;;;18.30;;
78344;SDS011;67620;51.134;6.548;2023-04-29T10:23:48;29.58;;;18.33;;
78344;SDS011;67620;51.134;6.548;2023-04-29T10:26:14;34.13;;;19.55;;
78344;SDS011;67620;51.134;6.548;2023-04-29T10:28:42;31.48;;;18.20;;
78344;SDS011;67620;51.134;6.548;2023-04-29T10:31:09;33.13;;;19.58;;
78344;SDS011;67620;51.134;6.548;2023-04-29T10:33:37;35.67;;;20.98;;
78344;SDS011;67620;51.134;6.548;2023-04-29T10:36:07;40.83;;;26.40;;
78344;SDS011;67620;51.134;6.548;2023-04-29T10:38:39;34.17;;;20.90;;
78344;SDS011;67620;51.134;6.548;2023-04-29T10:41:11;34.35;;;20.98;;
78344;SDS011;67620;51.134;6.548;2023-04-29T10:43:44;33.33;;;20.25;;
78344;SDS011;67620;51.134;6.548;2023-04-29T10:46:23;31.38;;;19.00;;
78344;SDS011;67620;51.134;6.548;2023-04-29T10:48:54;30.30;;;19.23;;
78344;SDS011;67620;51.134;6.548;2023-04-29T10:51:29;31.02;;;17.92;;
78344;SDS011;67620;51.134;6.548;2023-04-29T10:53:57;30.42;;;18.35;;
78344;SDS011;67620;51.134;6.548;2023-04-29T10:56:43;31.50;;;18.88;;
78344;SDS011;67620;51.134;6.548;2023-04-29T10:59:14;30.05;;;19.05;;
78344;SDS011;67620;51.134;6.548;2023-04-29T11:04:12;32.40;;;18.92;;
78344;SDS011;67620;51.134;6.548;2023-04-29T11:06:43;28.75;;;17.00;;
78344;SDS011;67620;51.134;6.548;2023-04-29T11:09:25;29.42;;;18.65;;
78344;SDS011;67620;51.134;6.548;2023-04-29T11:16:55;27.40;;;18.83;;
78344;SDS011;67620;51.134;6.548;2023-04-29T11:19:23;28.40;;;18.45;;
78344;SDS011;67620;51.134;6.548;2023-04-29T11:22:02;31.58;;;18.58;;
78344;SDS011;67620;51.134;6.548;2023-04-29T11:24:33;29.17;;;18.45;;
78344;SDS011;67620;51.134;6.548;2023-04-29T11:26:59;29.52;;;18.30;;
78344;SDS011;67620;51.134;6.548;2023-04-29T11:29:29;26.50;;;18.63;;
78344;SDS011;67620;51.134;6.548;2023-04-29T11:32:00;31.95;;;19.25;;
78344;SDS011;67620;51.134;6.548;2023-04-29T11:34:26;27.25;;;18.25;;
78344;SDS011;67620;51.134;6.548;2023-04-29T11:36:51;31.45;;;19.02;;
78344;SDS011;67620;51.134;6.548;2023-04-29T11:39:17;32.15;;;18.85;;
78344;SDS011;67620;51.134;6.548;2023-04-29T11:41:43;30.38;;;19.40;;
78344;SDS011;67620;51.134;6.548;2023-04-29T11:44:09;34.25;;;19.83;;
78344;SDS011;67620;51.134;6.548;2023-04-29T11:46:36;35.15;;;22.55;;
78344;SDS011;67620;51.134;6.548;2023-04-29T11:49:01;31.77;;;18.75;;
78344;SDS011;67620;51.134;6.548;2023-04-29T11:51:27;32.42;;;19.88;;
78344;SDS011;67620;51.134;6.548;2023-04-29T11:53:53;29.48;;;18.48;;
78344;SDS011;67620;51.134;6.548;2023-04-29T11:56:22;32.25;;;21.50;;
78344;SDS011;67620;51.134;6.548;2023-04-29T11:58:54;31.90;;;20.38;;
78344;SDS011;67620;51.134;6.548;2023-04-29T12:01:21;31.15;;;20.35;;
78344;SDS011;67620;51.134;6.548;2023-04-29T12:03:47;29.23;;;19.05;;
78344;SDS011;67620;51.134;6.548;2023-04-29T12:06:14;30.65;;;20.35;;
78344;SDS011;67620;51.134;6.548;2023-04-29T12:08:39;35.05;;;20.08;;
78344;SDS011;67620;51.134;6.548;2023-04-29T12:11:05;28.95;;;19.60;;
78344;SDS011;67620;51.134;6.548;2023-04-29T12:15:57;27.35;;;19.55;;
78344;SDS011;67620;51.134;6.548;2023-04-29T12:18:23;29.65;;;20.20;;
78344;SDS011;67620;51.134;6.548;2023-04-29T12:20:51;36.00;;;23.00;;
78344;SDS011;67620;51.134;6.548;2023-04-29T12:23:22;40.90;;;24.50;;
78344;SDS011;67620;51.134;6.548;2023-04-29T12:25:51;35.67;;;22.35;;
78344;SDS011;67620;51.134;6.548;2023-04-29T12:28:19;34.72;;;21.98;;
78344;SDS011;67620;51.134;6.548;2023-04-29T12:30:45;32.70;;;22.45;;
78344;SDS011;67620;51.134;6.548;2023-04-29T12:33:21;31.67;;;21.00;;
78344;SDS011;67620;51.134;6.548;2023-04-29T12:35:52;32.13;;;21.52;;
78344;SDS011;67620;51.134;6.548;2023-04-29T12:38:22;31.85;;;21.17;;
78344;SDS011;67620;51.134;6.548;2023-04-29T12:40:51;39.33;;;24.75;;
78344;SDS011;67620;51.134;6.548;2023-04-29T12:43:28;36.47;;;22.70;;
78344;SDS011;67620;51.134;6.548;2023-04-29T12:46:01;33.03;;;22.83;;
78344;SDS011;67620;51.134;6.548;2023-04-29T12:48:37;35.20;;;24.08;;
78344;SDS011;67620;51.134;6.548;2023-04-29T12:51:09;37.15;;;24.73;;
78344;SDS011;67620;51.134;6.548;2023-04-29T12:53:35;33.45;;;24.80;;
78344;SDS011;67620;51.134;6.548;2023-04-29T12:56:01;40.83;;;27.13;;
78344;SDS011;67620;51.134;6.548;2023-04-29T12:58:30;43.22;;;29.55;;
78344;SDS011;67620;51.134;6.548;2023-04-29T13:00:56;36.63;;;25.83;;
78344;SDS011;67620;51.134;6.548;2023-04-29T13:03:22;37.13;;;26.83;;
78344;SDS011;67620;51.134;6.548;2023-04-29T13:08:16;34.30;;;23.80;;
78344;SDS011;67620;51.134;6.548;2023-04-29T13:10:42;31.23;;;22.63;;
78344;SDS011;67620;51.134;6.548;2023-04-29T13:13:07;34.70;;;22.45;;
78344;SDS011;67620;51.134;6.548;2023-04-29T13:15:36;30.08;;;21.38;;
78344;SDS011;67620;51.134;6.548;2023-04-29T13:18:05;33.05;;;21.85;;
78344;SDS011;67620;51.134;6.548;2023-04-29T13:20:30;32.35;;;21.92;;
78344;SDS011;67620;51.134;6.548;2023-04-29T13:22:59;29.73;;;22.40;;
78344;SDS011;67620;51.134;6.548;2023-04-29T13:25:24;29.23;;;22.58;;
78344;SDS011;67620;51.134;6.548;2023-04-29T13:27:50;28.48;;;22.42;;
78344;SDS011;67620;51.134;6.548;2023-04-29T13:30:16;32.92;;;22.13;;
78344;SDS011;67620;51.134;6.548;2023-04-29T13:32:41;27.83;;;21.63;;
78344;SDS011;67620;51.134;6.548;2023-04-29T13:35:08;26.92;;;20.55;;
78344;SDS011;67620;51.134;6.548;2023-04-29T13:37:33;31.05;;;22.80;;
78344;SDS011;67620;51.134;6.548;2023-04-29T13:39:59;26.42;;;20.55;;
78344;SDS011;67620;51.134;6.548;2023-04-29T13:42:24;24.73;;;19.48;;
78344;SDS011;67620;51.134;6.548;2023-04-29T13:44:50;27.92;;;20.63;;
78344;SDS011;67620;51.134;6.548;2023-04-29T13:47:17;27.20;;;21.75;;
78344;SDS011;67620;51.134;6.548;2023-04-29T13:49:43;27.48;;;20.35;;
78344;SDS011;67620;51.134;6.548;2023-04-29T13:52:09;28.08;;;22.20;;
78344;SDS011;67620;51.134;6.548;2023-04-29T13:54:35;26.20;;;20.98;;
78344;SDS011;67620;51.134;6.548;2023-04-29T13:57:01;28.35;;;21.45;;
78344;SDS011;67620;51.134;6.548;2023-04-29T13:59:29;28.60;;;22.45;;
78344;SDS011;67620;51.134;6.548;2023-04-29T14:01:56;25.95;;;22.23;;
78344;SDS011;67620;51.134;6.548;2023-04-29T14:04:22;27.65;;;22.20;;
78344;SDS011;67620;51.134;6.548;2023-04-29T14:06:48;27.85;;;22.10;;
78344;SDS011;67620;51.134;6.548;2023-04-29T14:09:13;26.15;;;21.80;;
78344;SDS011;67620;51.134;6.548;2023-04-29T14:14:05;24.05;;;19.40;;
78344;SDS011;67620;51.134;6.548;2023-04-29T14:16:31;26.17;;;19.50;;
78344;SDS011;67620;51.134;6.548;2023-04-29T14:18:57;27.63;;;20.30;;
78344;SDS011;67620;51.134;6.548;2023-04-29T14:21:22;24.67;;;18.95;;
78344;SDS011;67620;51.134;6.548;2023-04-29T14:23:48;24.15;;;18.73;;
78344;SDS011;67620;51.134;6.548;2023-04-29T14:26:14;20.33;;;17.75;;
78344;SDS011;67620;51.134;6.548;2023-04-29T14:28:41;23.05;;;18.27;;
78344;SDS011;67620;51.134;6.548;2023-04-29T14:33:32;22.90;;;17.65;;
78344;SDS011;67620;51.134;6.548;2023-04-29T14:35:57;26.35;;;19.92;;
78344;SDS011;67620;51.134;6.548;2023-04-29T14:38:25;24.85;;;18.20;;
78344;SDS011;67620;51.134;6.548;2023-04-29T14:40:50;32.22;;;22.95;;
78344;SDS011;67620;51.134;6.548;2023-04-29T14:45:42;22.23;;;15.25;;
78344;SDS011;67620;51.134;6.548;2023-04-29T14:48:09;22.63;;;15.65;;
78344;SDS011;67620;51.134;6.548;2023-04-29T14:50:34;21.17;;;14.85;;
78344;SDS011;67620;51.134;6.548;2023-04-29T14:53:00;20.58;;;15.75;;
78344;SDS011;67620;51.134;6.548;2023-04-29T14:55:26;19.02;;;14.32;;
78344;SDS011;67620;51.134;6.548;2023-04-29T14:57:51;19.73;;;15.15;;
78344;SDS011;67620;51.134;6.548;2023-04-29T15:00:17;19.63;;;14.90;;
78344;SDS011;67620;51.134;6.548;2023-04-29T15:02:42;16.85;;;13.95;;
78344;SDS011;67620;51.134;6.548;2023-04-29T15:05:08;17.73;;;14.23;;
78344;SDS011;67620;51.134;6.548;2023-04-29T15:07:34;18.63;;;13.10;;
78344;SDS011;67620;51.134;6.548;2023-04-29T15:09:59;16.95;;;12.98;;
78344;SDS011;67620;51.134;6.548;2023-04-29T15:12:25;19.77;;;14.35;;
78344;SDS011;67620;51.134;6.548;2023-04-29T15:14:51;18.85;;;13.88;;